Time;durP1;ratioP1;P1;durP2;ratioP2;P2;SDS_P1;SDS_P2;PMS_P1;PMS_P2;Temp;Humidity;BMP_temperature;BMP_pressure;BME280_temperature;BME280_humidity;BME280_pressure;Samples;Min_cycle;Max_cycle;Signal;HPM_P1;HPM_P2
2022/09/19 00:00:46;;;;;;;0.40;0.25;;;22.00;83.30;;;;;;5084522;28;45367;-74
2022/09/19 00:03:13;;;;;;;0.25;0.20;;;22.00;83.60;;;;;;5084241;28;47757;-74
2022/09/19 00:05:40;;;;;;;1.30;0.25;;;22.00;83.70;;;;;;5083706;28;45209;-74
2022/09/19 00:08:07;;;;;;;0.52;0.30;;;22.00;83.50;;;;;;5084674;28;45468;-74
2022/09/19 00:10:39;;;;;;;0.32;0.20;;;22.00;83.40;;;;;;5084167;28;45595;-75
2022/09/19 00:13:06;;;;;;;0.68;0.35;;;22.00;83.60;;;;;;5081180;28;46365;-74
2022/09/19 00:15:34;;;;;;;0.70;0.30;;;22.00;83.40;;;;;;5083842;28;45425;-74
2022/09/19 00:18:03;;;;;;;0.63;0.32;;;22.00;83.50;;;;;;5099090;27;45443;-74
2022/09/19 00:20:30;;;;;;;0.50;0.30;;;22.00;83.70;;;;;;5089435;27;45324;-74
2022/09/19 00:25:40;;;;;;;1.52;0.32;;;22.00;83.20;;;;;;5057480;28;45412;-74
2022/09/19 00:28:08;;;;;;;0.22;0.20;;;22.00;83.10;;;;;;5086505;28;45426;-74
2022/09/19 00:30:38;;;;;;;0.52;0.25;;;22.00;82.90;;;;;;5087260;28;45525;-74
2022/09/19 00:33:06;;;;;;;0.68;0.30;;;22.00;83.10;;;;;;5087240;28;48078;-74
2022/09/19 00:35:35;;;;;;;0.90;0.20;;;22.00;82.80;;;;;;5079742;28;45458;-74
2022/09/19 00:38:02;;;;;;;0.43;0.30;;;22.00;82.80;;;;;;5087357;28;45616;-74
2022/09/19 00:40:29;;;;;;;0.57;0.32;;;22.00;82.40;;;;;;5087530;28;45211;-74
2022/09/19 00:42:56;;;;;;;1.20;0.60;;;22.00;82.60;;;;;;5087238;28;47370;-74
2022/09/19 00:45:22;;;;;;;0.20;0.20;;;22.00;82.50;;;;;;5086003;28;45316;-74
2022/09/19 00:47:53;;;;;;;0.32;0.28;;;22.00;82.60;;;;;;5087051;28;45406;-75
2022/09/19 00:50:24;;;;;;;0.13;0.10;;;22.00;83.10;;;;;;5087584;28;45218;-74
2022/09/19 00:52:55;;;;;;;2.50;0.38;;;22.00;83.00;;;;;;5086840;28;47189;-74
2022/09/19 00:55:22;;;;;;;0.73;0.25;;;22.00;83.20;;;;;;5083115;28;45348;-74
2022/09/19 00:58:03;;;;;;;1.02;0.28;;;22.00;83.00;;;;;;5087334;28;45471;-74
2022/09/19 01:00:31;;;;;;;0.38;0.30;;;22.00;83.40;;;;;;5086778;28;45460;-75
2022/09/19 01:02:57;;;;;;;1.65;0.50;;;22.00;83.20;;;;;;5087401;28;45322;-74
2022/09/19 01:05:41;;;;;;;0.32;0.30;;;22.00;83.60;;;;;;5086012;27;45349;-74
2022/09/19 01:08:36;;;;;;;1.40;0.30;;;22.00;83.00;;;;;;5078966;28;45436;-74
2022/09/19 01:11:16;;;;;;;0.20;0.10;;;22.00;83.40;;;;;;5082071;28;45325;-75
2022/09/19 01:13:52;;;;;;;1.00;0.20;;;22.00;83.10;;;;;;5086492;28;47842;-76
2022/09/19 01:16:28;;;;;;;0.98;0.40;;;22.00;83.50;;;;;;5085222;28;45467;-74
2022/09/19 01:19:05;;;;;;;0.40;0.20;;;22.00;83.30;;;;;;5073126;28;45378;-74
2022/09/19 01:21:40;;;;;;;0.13;0.13;;;22.00;83.50;;;;;;5073210;28;45395;-74
2022/09/19 01:24:34;;;;;;;1.35;0.50;;;22.00;82.80;;;;;;5086426;28;48170;-74
2022/09/19 01:27:25;;;;;;;1.63;0.20;;;22.00;82.00;;;;;;5084938;28;45393;-74
2022/09/19 01:29:59;;;;;;;1.77;0.38;;;22.00;82.60;;;;;;5042466;27;45270;-74
2022/09/19 01:32:32;;;;;;;0.65;0.40;;;22.00;82.30;;;;;;5077698;28;45476;-74
2022/09/19 01:35:03;;;;;;;0.20;0.20;;;22.00;82.10;;;;;;5085829;28;48240;-74
2022/09/19 01:37:34;;;;;;;0.38;0.22;;;22.00;82.00;;;;;;5079089;28;45214;-75
2022/09/19 01:40:05;;;;;;;1.23;0.35;;;22.00;82.00;;;;;;5085966;28;45339;-74
2022/09/19 01:42:31;;;;;;;1.95;0.28;;;21.90;81.60;;;;;;5083096;28;45300;-75
2022/09/19 01:45:00;;;;;;;0.40;0.20;;;22.00;82.50;;;;;;5069996;28;46962;-75
2022/09/19 01:47:34;;;;;;;0.30;0.28;;;21.90;82.50;;;;;;5085196;28;45436;-74
2022/09/19 01:50:06;;;;;;;0.32;0.20;;;22.00;82.90;;;;;;5079167;28;45451;-74
2022/09/19 01:52:48;;;;;;;1.08;0.30;;;21.90;82.60;;;;;;5086522;28;45247;-75
2022/09/19 01:55:22;;;;;;;1.45;0.40;;;21.90;82.60;;;;;;5085280;28;48072;-74
2022/09/19 01:57:55;;;;;;;1.20;0.30;;;22.00;82.70;;;;;;5086153;28;45427;-74
2022/09/19 02:00:25;;;;;;;1.05;0.32;;;22.00;82.80;;;;;;5086298;28;45326;-74
2022/09/19 02:03:03;;;;;;;0.45;0.28;;;22.00;82.80;;;;;;5084708;28;45625;-74
2022/09/19 02:05:37;;;;;;;0.22;0.20;;;22.00;83.10;;;;;;5066016;28;45282;-75
2022/09/19 02:08:09;;;;;;;0.80;0.20;;;22.00;82.80;;;;;;5073785;28;45254;-74
2022/09/19 02:10:40;;;;;;;1.35;0.40;;;22.00;83.00;;;;;;5080753;27;45334;-75
2022/09/19 02:13:09;;;;;;;0.50;0.30;;;22.00;82.80;;;;;;5082072;28;45545;-74
2022/09/19 02:15:37;;;;;;;1.08;0.30;;;22.00;80.00;;;;;;5085194;28;48147;-74
2022/09/19 02:18:09;;;;;;;0.30;0.20;;;22.00;80.00;;;;;;5083735;28;45511;-74
2022/09/19 02:20:41;;;;;;;0.20;0.20;;;21.90;79.90;;;;;;5085163;28;45372;-74
2022/09/19 02:23:15;;;;;;;0.60;0.40;;;21.90;79.90;;;;;;5085596;28;45393;-74
2022/09/19 02:25:45;;;;;;;0.70;0.40;;;21.90;79.90;;;;;;5084648;28;46378;-75
2022/09/19 02:28:18;;;;;;;0.90;0.40;;;21.90;79.90;;;;;;5084375;27;46185;-74
2022/09/19 02:30:46;;;;;;;2.00;0.30;;;22.00;80.00;;;;;;5085765;28;45377;-74
2022/09/19 02:33:13;;;;;;;1.20;0.40;;;22.00;80.00;;;;;;5085118;28;45254;-74
2022/09/19 02:35:46;;;;;;;1.30;0.32;;;21.90;79.90;;;;;;5084948;28;47430;-74
2022/09/19 02:38:22;;;;;;;0.80;0.30;;;21.90;79.90;;;;;;5082909;28;45154;-74
2022/09/19 02:40:52;;;;;;;1.38;0.32;;;21.90;79.90;;;;;;5082382;27;45312;-74
2022/09/19 02:43:28;;;;;;;1.05;0.22;;;22.00;80.00;;;;;;5085004;28;45581;-74
2022/09/19 02:46:01;;;;;;;0.75;0.20;;;21.90;79.90;;;;;;5085225;28;48606;-75
2022/09/19 02:48:36;;;;;;;0.30;0.30;;;21.90;79.90;;;;;;5077897;28;45565;-74
2022/09/19 02:51:07;;;;;;;0.40;0.20;;;22.00;81.00;;;;;;5084980;28;45662;-74
2022/09/19 02:53:41;;;;;;;0.32;0.20;;;22.00;80.00;;;;;;5085262;28;45330;-74
2022/09/19 02:56:14;;;;;;;0.50;0.20;;;22.00;80.00;;;;;;5088588;27;46541;-74
2022/09/19 02:58:46;;;;;;;0.57;0.30;;;21.90;79.90;;;;;;5096138;27;45445;-74
2022/09/19 03:01:19;;;;;;;0.50;0.20;;;21.90;79.90;;;;;;5083446;28;45501;-74
2022/09/19 03:06:37;;;;;;;1.15;0.30;;;22.00;80.00;;;;;;5072791;28;45268;-74
2022/09/19 03:09:07;;;;;;;0.32;0.30;;;21.90;79.90;;;;;;5084500;28;45396;-74
2022/09/19 03:11:39;;;;;;;0.52;0.25;;;22.00;80.00;;;;;;5085040;28;45285;-74
2022/09/19 03:14:07;;;;;;;0.30;0.30;;;21.90;79.60;;;;;;5085050;28;45400;-74
2022/09/19 03:16:40;;;;;;;1.52;0.22;;;21.90;79.10;;;;;;5084748;28;46638;-74
2022/09/19 03:19:10;;;;;;;0.85;0.40;;;21.90;78.90;;;;;;5083207;28;45313;-74
2022/09/19 03:21:38;;;;;;;1.15;0.35;;;21.90;78.50;;;;;;5083968;27;45298;-74
2022/09/19 03:24:06;;;;;;;0.30;0.22;;;21.90;79.00;;;;;;5084682;28;45582;-74
2022/09/19 03:26:35;;;;;;;0.30;0.20;;;21.90;79.00;;;;;;5084075;28;47440;-74
2022/09/19 03:29:03;;;;;;;0.60;0.20;;;21.90;78.40;;;;;;5083930;28;45218;-74
2022/09/19 03:31:30;;;;;;;0.73;0.20;;;21.90;78.60;;;;;;5068627;28;45334;-74
2022/09/19 03:33:58;;;;;;;0.20;0.20;;;21.90;78.70;;;;;;5084476;28;45257;-75
2022/09/19 03:36:27;;;;;;;0.45;0.20;;;21.90;78.80;;;;;;5072398;28;46641;-74
2022/09/19 03:38:58;;;;;;;0.50;0.15;;;21.90;79.10;;;;;;5082300;28;45376;-75
2022/09/19 03:41:24;;;;;;;0.35;0.22;;;21.90;79.40;;;;;;5084340;28;45219;-74
2022/09/19 03:43:51;;;;;;;0.10;0.10;;;21.90;79.40;;;;;;5074196;28;45349;-74
2022/09/19 03:46:20;;;;;;;1.23;0.40;;;21.90;79.90;;;;;;5082871;28;47514;-74
2022/09/19 03:48:47;;;;;;;0.95;0.30;;;21.90;79.10;;;;;;5084421;28;45357;-74
2022/09/19 03:51:17;;;;;;;0.77;0.25;;;21.90;79.00;;;;;;5082309;28;45355;-74
2022/09/19 03:53:44;;;;;;;0.63;0.20;;;21.90;78.60;;;;;;5075066;28;45430;-74
2022/09/19 03:56:12;;;;;;;0.35;0.22;;;21.90;78.70;;;;;;5083510;28;47381;-74
2022/09/19 03:58:39;;;;;;;0.30;0.20;;;21.90;79.80;;;;;;5083816;27;45280;-74
2022/09/19 04:01:06;;;;;;;0.20;0.20;;;21.90;78.90;;;;;;5083656;28;45448;-74
2022/09/19 04:03:33;;;;;;;0.50;0.20;;;21.90;79.00;;;;;;5081874;28;45284;-74
2022/09/19 04:06:00;;;;;;;0.63;0.25;;;21.90;78.80;;;;;;5083047;28;48800;-74
2022/09/19 04:08:29;;;;;;;1.15;0.40;;;21.90;78.60;;;;;;5078371;28;45657;-74
2022/09/19 04:10:55;;;;;;;0.85;0.20;;;21.90;79.70;;;;;;5083454;28;45377;-74
2022/09/19 04:13:23;;;;;;;1.25;0.20;;;21.90;78.20;;;;;;5083946;28;45577;-74
2022/09/19 04:15:50;;;;;;;0.50;0.17;;;21.90;78.20;;;;;;5079180;28;46629;-74
2022/09/19 04:18:18;;;;;;;0.25;0.20;;;21.90;78.10;;;;;;5083820;28;45344;-74
2022/09/19 04:20:47;;;;;;;1.05;0.20;;;21.90;77.70;;;;;;5078595;28;45328;-74
2022/09/19 04:23:16;;;;;;;1.23;0.35;;;21.90;77.80;;;;;;5084203;28;45551;-74
2022/09/19 04:25:46;;;;;;;0.32;0.10;;;21.90;77.70;;;;;;5083562;28;47326;-74
2022/09/19 04:28:16;;;;;;;0.45;0.20;;;21.90;77.90;;;;;;5072857;28;45268;-74
2022/09/19 04:30:44;;;;;;;0.52;0.20;;;21.90;78.00;;;;;;5081813;28;45450;-75
2022/09/19 04:33:13;;;;;;;0.20;0.17;;;21.90;77.50;;;;;;5084025;28;45388;-74
2022/09/19 04:35:43;;;;;;;0.20;0.20;;;21.90;77.90;;;;;;5082750;28;45441;-74
2022/09/19 04:38:12;;;;;;;0.50;0.20;;;21.90;78.20;;;;;;5083827;28;45197;-74
2022/09/19 04:40:40;;;;;;;0.93;0.30;;;21.90;77.90;;;;;;5083577;28;45577;-74
2022/09/19 04:43:09;;;;;;;0.75;0.32;;;21.90;78.30;;;;;;5082005;28;45588;-74
2022/09/19 04:45:37;;;;;;;0.90;0.30;;;21.90;78.40;;;;;;5082830;28;47835;-73
2022/09/19 04:48:05;;;;;;;2.10;0.68;;;21.90;78.50;;;;;;5078540;28;45304;-74
2022/09/19 04:50:32;;;;;;;0.10;0.10;;;21.90;78.00;;;;;;5083466;28;45305;-74
2022/09/19 04:52:59;;;;;;;0.38;0.20;;;21.90;78.00;;;;;;5083910;28;45468;-74
2022/09/19 04:55:27;;;;;;;0.38;0.20;;;21.90;78.40;;;;;;5083169;28;48622;-74
2022/09/19 04:57:54;;;;;;;0.50;0.30;;;21.90;77.70;;;;;;5083487;28;45395;-74
2022/09/19 05:03:25;;;;;;;0.40;0.25;;;21.90;78.10;;;;;;5184498;27;45318;-74
2022/09/19 05:05:53;;;;;;;1.60;0.30;;;21.90;77.90;;;;;;5162544;27;45421;-74
2022/09/19 05:08:25;;;;;;;0.82;0.35;;;21.90;78.90;;;;;;5164070;27;45342;-74
2022/09/19 05:10:54;;;;;;;0.47;0.20;;;21.90;77.50;;;;;;5163790;27;45338;-74
2022/09/19 05:13:21;;;;;;;0.20;0.10;;;21.90;77.60;;;;;;5161496;27;45471;-74
2022/09/19 05:15:48;;;;;;;0.55;0.30;;;21.90;77.90;;;;;;5163138;27;45278;-74
2022/09/19 05:18:17;;;;;;;0.20;0.20;;;21.90;77.80;;;;;;5163288;27;45461;-74
2022/09/19 05:20:45;;;;;;;1.15;0.22;;;21.90;77.70;;;;;;5163883;27;45305;-74
2022/09/19 05:23:11;;;;;;;0.43;0.17;;;21.90;77.40;;;;;;5163068;27;48054;-74
2022/09/19 05:25:39;;;;;;;1.13;0.20;;;21.90;77.30;;;;;;5163647;27;45470;-74
2022/09/19 05:28:07;;;;;;;0.73;0.30;;;21.90;77.50;;;;;;5163184;27;45390;-74
2022/09/19 05:30:36;;;;;;;0.65;0.22;;;21.90;78.00;;;;;;5162848;27;45418;-74
2022/09/19 05:33:04;;;;;;;0.22;0.13;;;21.90;77.60;;;;;;5162388;27;47700;-74
2022/09/19 05:35:31;;;;;;;0.55;0.28;;;21.90;77.60;;;;;;5162270;27;45462;-74
2022/09/19 05:38:00;;;;;;;0.22;0.20;;;21.90;78.70;;;;;;5161305;27;45399;-73
2022/09/19 05:40:27;;;;;;;1.17;0.28;;;21.90;78.00;;;;;;5152336;27;45341;-74
2022/09/19 05:42:59;;;;;;;0.75;0.20;;;21.90;77.80;;;;;;5162042;27;47995;-74
2022/09/19 05:45:27;;;;;;;0.43;0.20;;;21.90;78.30;;;;;;5147779;27;45669;-74
2022/09/19 05:48:00;;;;;;;1.17;0.20;;;21.90;77.80;;;;;;5160872;27;45434;-73
2022/09/19 05:50:26;;;;;;;0.30;0.20;;;21.90;77.50;;;;;;5152114;27;45319;-74
2022/09/19 05:55:40;;;;;;;2.40;0.50;;;21.90;76.10;;;;;;5146084;27;45225;-74
2022/09/19 05:58:07;;;;;;;1.05;0.40;;;21.90;76.60;;;;;;5153375;27;45429;-73
2022/09/19 06:00:37;;;;;;;0.47;0.30;;;21.90;77.00;;;;;;5159162;27;45615;-73
2022/09/19 06:03:05;;;;;;;1.25;0.28;;;21.90;77.90;;;;;;5156022;27;45477;-74
2022/09/19 06:05:40;;;;;;;1.15;0.43;;;21.90;77.50;;;;;;5155451;27;45423;-74
2022/09/19 06:08:07;;;;;;;0.68;0.40;;;21.80;76.30;;;;;;5165781;27;45432;-74
2022/09/19 06:10:37;;;;;;;1.70;0.40;;;21.80;76.10;;;;;;5162302;27;45366;-74
2022/09/19 06:13:06;;;;;;;0.93;0.28;;;21.80;76.80;;;;;;5156292;27;47768;-74
2022/09/19 06:15:33;;;;;;;1.85;0.38;;;21.80;77.80;;;;;;5138497;27;45271;-74
2022/09/19 06:18:00;;;;;;;3.20;0.68;;;21.90;77.90;;;;;;5144817;27;45209;-74
2022/09/19 06:20:27;;;;;;;1.92;0.40;;;21.90;79.60;;;;;;5148353;27;45211;-74
2022/09/19 06:22:57;;;;;;;1.65;0.40;;;21.80;78.60;;;;;;5148316;27;46306;-73
2022/09/19 06:25:25;;;;;;;1.48;0.30;;;21.90;79.20;;;;;;5147725;27;45664;-74
2022/09/19 06:27:55;;;;;;;1.50;0.40;;;21.90;79.90;;;;;;5144210;27;45256;-74
2022/09/19 06:30:24;;;;;;;1.25;0.50;;;21.90;79.90;;;;;;5147263;27;45567;-74
2022/09/19 06:32:51;;;;;;;0.73;0.30;;;21.90;79.90;;;;;;5139322;27;46919;-74
2022/09/19 06:35:19;;;;;;;0.85;0.38;;;21.90;79.90;;;;;;5136409;27;45527;-74
2022/09/19 06:37:47;;;;;;;0.75;0.43;;;21.90;80.00;;;;;;5150133;27;45275;-74
2022/09/19 06:40:15;;;;;;;1.02;0.30;;;21.90;79.90;;;;;;5145304;27;45291;-74
2022/09/19 06:42:42;;;;;;;1.98;0.57;;;21.90;79.70;;;;;;5141400;27;47686;-74
2022/09/19 06:45:09;;;;;;;0.55;0.30;;;21.90;79.10;;;;;;5146820;27;45311;-74
2022/09/19 06:47:37;;;;;;;1.42;0.40;;;21.90;79.80;;;;;;5141017;27;45334;-74
2022/09/19 06:50:05;;;;;;;1.40;0.47;;;21.90;79.90;;;;;;5146701;27;45398;-75
2022/09/19 06:52:32;;;;;;;1.30;0.40;;;22.00;79.80;;;;;;5146657;27;47624;-74
2022/09/19 06:54:59;;;;;;;0.73;0.30;;;22.00;79.70;;;;;;5145989;27;45304;-74
2022/09/19 06:57:25;;;;;;;1.92;0.45;;;22.00;78.40;;;;;;5139736;27;45356;-73
2022/09/19 06:59:52;;;;;;;1.95;0.40;;;22.00;78.40;;;;;;5146885;27;45457;-74
2022/09/19 07:02:21;;;;;;;1.30;0.40;;;22.00;78.70;;;;;;5143067;27;46608;-74
2022/09/19 07:04:49;;;;;;;1.63;0.40;;;22.00;79.20;;;;;;5146103;27;45405;-74
2022/09/19 07:07:16;;;;;;;1.40;0.40;;;22.00;80.00;;;;;;5133038;27;45371;-74
2022/09/19 07:09:43;;;;;;;1.42;0.40;;;22.00;79.80;;;;;;5139407;27;45325;-74
2022/09/19 07:12:10;;;;;;;0.43;0.20;;;22.00;80.00;;;;;;5146589;27;47034;-74
2022/09/19 07:14:37;;;;;;;1.42;0.40;;;22.00;80.00;;;;;;5145276;27;45389;-74
2022/09/19 07:17:04;;;;;;;1.20;0.50;;;22.00;80.00;;;;;;5146038;27;45272;-74
2022/09/19 07:19:31;;;;;;;2.20;0.45;;;22.00;80.00;;;;;;5139151;27;45306;-74
2022/09/19 07:21:59;;;;;;;3.92;0.80;;;22.00;80.00;;;;;;5130042;27;46785;-74
2022/09/19 07:24:26;;;;;;;3.25;0.32;;;22.00;80.00;;;;;;5135741;27;45248;-73
2022/09/19 07:26:53;;;;;;;2.55;0.45;;;22.00;80.60;;;;;;5141315;27;45342;-74
2022/09/19 07:29:20;;;;;;;2.10;0.60;;;22.00;80.60;;;;;;5143714;27;45564;-74
2022/09/19 07:31:47;;;;;;;1.58;0.70;;;21.90;80.30;;;;;;5145488;27;47587;-73
2022/09/19 07:34:14;;;;;;;1.20;0.40;;;21.90;80.20;;;;;;5145588;27;45414;-73
2022/09/19 07:36:41;;;;;;;2.75;0.50;;;22.00;80.10;;;;;;5143930;27;45251;-74
2022/09/19 07:39:10;;;;;;;1.63;0.50;;;21.90;79.90;;;;;;5146416;27;45422;-74
2022/09/19 07:41:37;;;;;;;2.00;0.38;;;22.00;80.00;;;;;;5138140;27;47299;-73
2022/09/19 07:44:04;;;;;;;4.57;0.60;;;22.00;80.00;;;;;;5145666;27;45343;-74
2022/09/19 07:46:31;;;;;;;2.78;0.82;;;22.00;80.00;;;;;;5142982;27;45516;-74
2022/09/19 07:48:58;;;;;;;1.92;0.50;;;22.00;80.00;;;;;;5151884;27;45402;-74
2022/09/19 07:51:26;;;;;;;1.38;0.60;;;22.00;80.00;;;;;;5141071;27;46074;-73
2022/09/19 07:53:53;;;;;;;1.73;0.43;;;22.00;80.00;;;;;;5126634;27;45236;-74
2022/09/19 07:56:21;;;;;;;1.00;0.40;;;22.00;80.00;;;;;;5135506;27;45439;-74
2022/09/19 07:58:48;;;;;;;1.55;0.57;;;22.00;80.00;;;;;;5145590;27;45399;-74
2022/09/19 08:01:15;;;;;;;2.17;0.68;;;22.00;80.00;;;;;;5135150;27;47012;-74
2022/09/19 08:03:44;;;;;;;4.53;0.60;;;22.00;80.00;;;;;;5126806;27;45325;-73
2022/09/19 08:06:12;;;;;;;3.25;0.68;;;22.00;80.00;;;;;;5144431;27;45350;-73
2022/09/19 08:08:39;;;;;;;1.10;0.50;;;22.00;80.00;;;;;;5147543;27;45617;-74
2022/09/19 08:11:05;;;;;;;2.30;0.57;;;22.00;80.00;;;;;;5144881;27;45667;-74
2022/09/19 08:13:33;;;;;;;1.40;0.50;;;22.10;80.10;;;;;;5145349;27;45360;-73
2022/09/19 08:16:01;;;;;;;2.60;0.55;;;22.00;80.00;;;;;;5144150;27;45376;-74
2022/09/19 08:18:28;;;;;;;1.75;0.60;;;22.10;80.10;;;;;;5145676;27;45180;-73
2022/09/19 08:20:56;;;;;;;1.10;0.40;;;22.00;80.00;;;;;;5145660;27;46656;-74
2022/09/19 08:23:23;;;;;;;1.17;0.55;;;22.00;80.00;;;;;;5145399;27;45634;-74
2022/09/19 08:25:53;;;;;;;0.70;0.40;;;22.10;80.10;;;;;;5138204;27;45437;-74
2022/09/19 08:28:21;;;;;;;1.77;0.30;;;22.10;80.10;;;;;;5144361;27;45310;-74
2022/09/19 08:30:49;;;;;;;2.13;0.63;;;22.10;80.10;;;;;;5137402;27;45335;-74
2022/09/19 08:33:18;;;;;;;2.15;0.75;;;22.10;80.10;;;;;;5143250;27;45379;-74
2022/09/19 08:35:45;;;;;;;2.00;0.70;;;22.10;80.10;;;;;;5144027;27;45377;-74
2022/09/19 08:38:13;;;;;;;1.85;0.60;;;22.10;80.10;;;;;;5145381;27;45547;-74
2022/09/19 08:41:05;;;;;;;0.77;0.30;;;22.10;80.10;;;;;;5145142;27;46805;-74
2022/09/19 08:43:42;;;;;;;1.98;0.50;;;22.10;80.10;;;;;;5137698;27;45433;-74
2022/09/19 08:46:15;;;;;;;1.77;0.60;;;22.10;80.10;;;;;;5138037;27;45431;-74
2022/09/19 08:48:50;;;;;;;3.20;0.70;;;22.10;80.10;;;;;;5145809;27;45457;-74
2022/09/19 08:51:21;;;;;;;1.65;0.45;;;22.10;80.10;;;;;;5143911;27;46489;-74
2022/09/19 08:53:54;;;;;;;1.40;0.43;;;22.10;80.10;;;;;;5145819;27;45299;-74
2022/09/19 08:56:21;;;;;;;3.30;0.68;;;22.10;80.10;;;;;;5145359;27;45326;-74
2022/09/19 08:58:54;;;;;;;1.70;0.50;;;22.00;80.40;;;;;;5146121;27;45376;-74
2022/09/19 09:01:23;;;;;;;3.38;0.50;;;22.00;80.40;;;;;;5136954;27;47316;-74
2022/09/19 09:04:00;;;;;;;0.70;0.32;;;22.00;80.50;;;;;;5145295;27;45362;-74
2022/09/19 09:06:38;;;;;;;1.38;0.55;;;22.00;80.60;;;;;;5132036;27;45371;-74
2022/09/19 09:09:17;;;;;;;3.22;0.70;;;22.00;80.70;;;;;;5140759;27;45400;-74
2022/09/19 09:11:56;;;;;;;1.73;0.60;;;22.00;80.70;;;;;;5144281;27;47535;-73
2022/09/19 09:14:31;;;;;;;0.85;0.43;;;22.00;80.00;;;;;;5144674;27;45414;-74
2022/09/19 09:17:14;;;;;;;0.88;0.40;;;22.00;80.00;;;;;;5143481;27;45469;-73
2022/09/19 09:19:56;;;;;;;1.13;0.40;;;22.00;80.00;;;;;;5139099;27;45541;-74
2022/09/19 09:22:26;;;;;;;1.20;0.50;;;22.00;80.20;;;;;;5143034;27;47899;-73
2022/09/19 09:25:00;;;;;;;1.50;0.55;;;22.10;80.40;;;;;;5143841;27;45882;-73
2022/09/19 09:27:35;;;;;;;2.65;0.50;;;22.00;80.00;;;;;;5145128;27;45475;-74
2022/09/19 09:30:09;;;;;;;1.02;0.30;;;22.10;80.60;;;;;;5136636;27;45738;-74
2022/09/19 09:32:43;;;;;;;0.68;0.50;;;22.00;80.50;;;;;;5139095;27;45800;-73
2022/09/19 09:35:16;;;;;;;0.93;0.50;;;22.00;80.10;;;;;;5142008;27;45307;-74
2022/09/19 09:37:48;;;;;;;1.15;0.40;;;22.10;80.10;;;;;;5137007;27;45429;-73
2022/09/19 09:41:44;;;;;;;1.63;0.50;;;22.10;80.30;;;;;;5128395;27;45499;-74
2022/09/19 09:43:09;;;;;;;3.75;0.50;;;22.10;80.50;;;;;;5134967;27;45394;-73
2022/09/19 09:45:43;;;;;;;0.95;0.20;;;22.00;80.50;;;;;;5140371;27;45465;-73
2022/09/19 09:48:18;;;;;;;0.95;0.40;;;22.00;80.50;;;;;;5142837;27;45513;-74
2022/09/19 09:51:02;;;;;;;1.90;0.40;;;22.00;80.70;;;;;;5153141;27;45363;-73
2022/09/19 09:53:42;;;;;;;1.52;0.57;;;22.00;80.90;;;;;;5148056;27;48066;-73
2022/09/19 09:56:15;;;;;;;0.90;0.40;;;22.00;81.10;;;;;;5149072;27;45305;-74
2022/09/19 09:58:53;;;;;;;1.42;0.47;;;22.00;81.30;;;;;;5145198;27;45394;-74
2022/09/19 10:04:30;;;;;;;1.02;0.50;;;22.00;81.10;;;;;;5149523;27;45585;-74
2022/09/19 10:07:13;;;;;;;0.90;0.45;;;22.00;81.10;;;;;;5143624;27;45523;-73
2022/09/19 10:09:45;;;;;;;1.48;0.40;;;22.00;80.80;;;;;;5141527;27;45401;-73
2022/09/19 10:12:21;;;;;;;3.90;0.50;;;22.00;80.80;;;;;;5140845;27;45376;-74
2022/09/19 10:14:48;;;;;;;2.63;0.52;;;22.00;80.80;;;;;;5142903;27;45445;-73
2022/09/19 10:17:19;;;;;;;1.02;0.50;;;22.00;80.40;;;;;;5136198;27;45301;-73
2022/09/19 10:19:50;;;;;;;0.77;0.30;;;22.00;80.70;;;;;;5132741;27;45512;-73
2022/09/19 10:22:18;;;;;;;0.55;0.30;;;22.00;80.00;;;;;;5147783;27;45440;-73
2022/09/19 10:24:50;;;;;;;0.88;0.40;;;22.00;80.60;;;;;;5145557;27;46976;-73
2022/09/19 10:27:19;;;;;;;1.23;0.30;;;22.00;80.50;;;;;;5147303;27;45577;-74
2022/09/19 10:29:52;;;;;;;0.90;0.38;;;22.00;80.70;;;;;;5146885;27;45415;-73
2022/09/19 10:32:24;;;;;;;1.38;0.50;;;22.10;80.60;;;;;;5142350;27;45450;-73
2022/09/19 10:34:53;;;;;;;1.05;0.40;;;22.10;80.80;;;;;;5143604;27;47326;-73
2022/09/19 10:37:24;;;;;;;2.90;0.47;;;22.00;80.50;;;;;;5148684;27;45284;-73
2022/09/19 10:39:51;;;;;;;2.25;0.50;;;22.00;80.50;;;;;;5145054;27;45394;-73
2022/09/19 10:42:36;;;;;;;1.08;0.50;;;22.10;81.00;;;;;;5140813;27;45253;-73
2022/09/19 10:45:25;;;;;;;1.02;0.40;;;22.00;80.80;;;;;;5155554;27;46589;-73
2022/09/19 10:47:54;;;;;;;0.25;0.25;;;22.10;81.20;;;;;;5138194;27;45509;-73
2022/09/19 10:50:24;;;;;;;2.17;0.65;;;22.10;81.40;;;;;;5144142;27;45473;-73
2022/09/19 10:52:53;;;;;;;0.95;0.45;;;22.10;81.70;;;;;;5144416;27;45461;-74
2022/09/19 10:55:22;;;;;;;1.58;0.40;;;22.00;81.70;;;;;;5141725;27;46460;-74
2022/09/19 10:58:00;;;;;;;1.50;0.40;;;22.00;82.40;;;;;;5134007;27;45474;-74
2022/09/19 11:00:28;;;;;;;1.05;0.50;;;22.00;82.60;;;;;;5137693;27;45284;-74
2022/09/19 11:03:02;;;;;;;1.13;0.40;;;22.00;82.70;;;;;;5139809;27;45448;-74
2022/09/19 11:05:33;;;;;;;1.00;0.40;;;22.00;82.60;;;;;;5141143;27;46512;-74
2022/09/19 11:08:00;;;;;;;1.02;0.35;;;22.00;82.30;;;;;;5138581;27;45447;-74
2022/09/19 11:10:33;;;;;;;1.08;0.30;;;22.00;82.10;;;;;;5137785;27;45459;-74
2022/09/19 11:13:07;;;;;;;0.38;0.25;;;22.00;82.10;;;;;;5145737;27;45274;-74
2022/09/19 11:15:40;;;;;;;1.05;0.43;;;22.00;81.90;;;;;;5143764;27;48454;-74
2022/09/19 11:18:16;;;;;;;1.73;0.40;;;22.00;81.80;;;;;;5139507;27;46359;-74
2022/09/19 11:20:57;;;;;;;1.35;0.40;;;22.00;81.70;;;;;;5143101;27;45345;-74
2022/09/19 11:24:02;;;;;;;1.23;0.50;;;22.00;81.70;;;;;;5145677;27;45656;-74
2022/09/19 11:26:41;;;;;;;0.73;0.30;;;22.00;81.60;;;;;;5101060;27;47077;-74
2022/09/19 11:29:24;;;;;;;0.77;0.30;;;22.00;81.40;;;;;;5141213;27;45325;-74
2022/09/19 11:32:03;;;;;;;0.77;0.40;;;22.00;81.40;;;;;;5133950;27;45350;-74
2022/09/19 11:34:39;;;;;;;0.98;0.28;;;22.00;81.30;;;;;;5138185;27;45275;-74
2022/09/19 11:37:25;;;;;;;1.10;0.40;;;22.00;81.10;;;;;;5145075;27;48745;-74
2022/09/19 11:40:03;;;;;;;0.82;0.32;;;22.00;81.00;;;;;;5129557;27;46044;-75
2022/09/19 11:42:41;;;;;;;1.55;0.22;;;22.00;80.90;;;;;;5145409;27;45507;-74
2022/09/19 11:45:12;;;;;;;0.77;0.30;;;22.00;80.50;;;;;;5140508;27;45344;-74
2022/09/19 11:48:16;;;;;;;1.17;0.40;;;21.90;80.30;;;;;;5138205;27;45429;-74
2022/09/19 11:50:59;;;;;;;0.90;0.20;;;22.00;80.50;;;;;;5137985;27;45579;-74
2022/09/19 11:53:48;;;;;;;1.77;0.43;;;22.00;80.40;;;;;;5139233;27;45326;-74
2022/09/19 11:56:37;;;;;;;1.17;0.20;;;22.00;80.00;;;;;;5135930;27;45611;-74
2022/09/19 11:59:18;;;;;;;0.77;0.30;;;22.00;80.00;;;;;;5141460;27;45497;-74
2022/09/19 12:01:54;;;;;;;1.63;0.38;;;22.00;80.00;;;;;;5133215;27;45415;-74
2022/09/19 12:04:33;;;;;;;0.50;0.40;;;22.00;80.30;;;;;;5141070;27;45457;-74
2022/09/19 12:07:18;;;;;;;0.40;0.30;;;22.00;80.30;;;;;;5129091;27;45485;-74
2022/09/19 12:09:49;;;;;;;0.50;0.20;;;22.00;80.40;;;;;;5133449;27;48116;-74
2022/09/19 12:12:18;;;;;;;0.80;0.30;;;22.00;80.00;;;;;;5144089;27;46045;-74
2022/09/19 12:14:51;;;;;;;1.30;0.38;;;22.00;80.00;;;;;;5146153;27;45283;-74
2022/09/19 12:17:23;;;;;;;0.55;0.30;;;22.00;80.00;;;;;;5136903;27;45439;-74
2022/09/19 12:19:57;;;;;;;1.83;0.30;;;22.00;80.10;;;;;;5144603;27;45498;-74
2022/09/19 12:22:27;;;;;;;1.45;0.35;;;22.00;80.00;;;;;;5143171;27;45296;-75
2022/09/19 12:25:05;;;;;;;1.30;0.30;;;22.00;80.00;;;;;;5132518;27;45354;-75
2022/09/19 12:27:37;;;;;;;0.93;0.38;;;22.00;80.00;;;;;;5144774;27;45474;-74
2022/09/19 12:30:12;;;;;;;0.90;0.28;;;21.90;79.90;;;;;;5145104;27;47387;-74
2022/09/19 12:32:46;;;;;;;1.02;0.32;;;22.00;80.00;;;;;;5141292;27;45875;-74
2022/09/19 12:35:19;;;;;;;0.80;0.40;;;21.90;79.90;;;;;;5143475;27;45489;-74
2022/09/19 12:37:56;;;;;;;0.40;0.20;;;22.00;80.00;;;;;;5140883;27;45360;-74
2022/09/19 12:40:31;;;;;;;0.77;0.30;;;21.90;79.90;;;;;;5145405;27;45403;-74
2022/09/19 12:43:07;;;;;;;0.38;0.20;;;21.90;79.90;;;;;;5126105;27;45327;-74
2022/09/19 12:45:40;;;;;;;1.27;0.20;;;22.00;80.00;;;;;;5128445;27;45347;-74
2022/09/19 12:48:15;;;;;;;1.08;0.47;;;21.90;79.90;;;;;;5143616;27;45321;-74
2022/09/19 12:50:44;;;;;;;0.47;0.20;;;21.90;79.90;;;;;;5141391;27;45561;-73
2022/09/19 12:53:31;;;;;;;1.25;0.30;;;21.90;79.90;;;;;;5140626;27;45501;-74
2022/09/19 12:56:04;;;;;;;0.70;0.25;;;21.90;79.90;;;;;;5134165;27;45322;-75
2022/09/19 12:58:37;;;;;;;0.63;0.30;;;21.90;79.90;;;;;;5133186;27;45476;-74
2022/09/19 13:01:18;;;;;;;2.17;0.30;;;21.90;79.90;;;;;;5130535;27;46678;-74
2022/09/19 13:03:50;;;;;;;0.98;0.20;;;21.90;79.90;;;;;;5139227;27;45547;-74
2022/09/19 13:06:23;;;;;;;0.85;0.20;;;21.90;80.10;;;;;;5149849;27;45330;-74
2022/09/19 13:08:55;;;;;;;0.50;0.22;;;21.90;80.30;;;;;;5145815;27;45342;-74
2022/09/19 13:11:30;;;;;;;0.43;0.20;;;21.90;80.60;;;;;;5129425;27;47965;-74
2022/09/19 13:14:03;;;;;;;0.77;0.20;;;21.90;80.40;;;;;;5143081;27;45319;-74
2022/09/19 13:16:34;;;;;;;0.32;0.28;;;21.90;80.50;;;;;;5133797;27;45494;-74
2022/09/19 13:24:54;;;;;;;0.22;0.20;;;21.90;80.60;;;;;;5136085;27;45275;-74
2022/09/19 13:27:24;;;;;;;0.57;0.20;;;21.90;80.40;;;;;;5147484;27;45463;-74
2022/09/19 13:29:53;;;;;;;0.73;0.20;;;21.90;80.30;;;;;;5140376;27;45451;-75